METAR Data
IDs: Format: Raw Decoded Include TAF

Data at: 1454 UTC 25 Jan 2020

METAR for:KGAI (Gaithersburg/Montgom, MD, US)
Text:KGAI 251447Z AUTO 31006KT 10SM BKN004 OVC011 07/06 A2984 RMK AO2 RAB27E47 SLP121 P0000 60004 T00720061 56006
Temperature: 7.2°C ( 45°F)
Dewpoint: 6.1°C ( 43°F) [RH = 93%]
Pressure (altimeter):29.84 inches Hg (1010.6 mb) [Sea level pressure: 1012.1 mb]
Winds:from the NW (310 degrees) at 7 MPH (6 knots; 3.1 m/s)
Visibility:10 or more sm (16+ km)
Ceiling:400 feet AGL
Clouds: broken clouds at 400 feet AGL, overcast cloud deck at 1100 feet AGL
QC Flag:automated observation with no human augmentation